createdAt,value
2023-02-24T21:16:57.313Z,49.55
2023-02-24T21:19:59.665Z,47.83
2023-02-24T21:23:01.745Z,51.83
2023-02-24T21:26:03.988Z,22.17
2023-02-24T21:29:06.196Z,11.20
2023-02-24T21:32:08.322Z,10.02
2023-02-24T21:35:10.877Z,9.02
2023-02-24T21:38:12.859Z,9.23
2023-02-24T21:41:15.533Z,9.23
2023-02-24T21:44:17.649Z,8.80
2023-02-24T21:47:20.796Z,8.98
2023-02-24T21:50:23.728Z,9.10
2023-02-24T21:53:30.151Z,9.43
2023-02-24T21:56:32.174Z,9.07
2023-02-24T21:59:34.373Z,9.40
2023-02-24T22:02:36.857Z,9.40
2023-02-24T22:05:38.846Z,10.38
2023-02-24T22:08:43.571Z,9.32
2023-02-24T22:11:45.697Z,9.40
2023-02-24T22:14:47.802Z,9.80
2023-02-24T22:17:50.179Z,8.95
2023-02-24T22:20:52.506Z,10.43
2023-02-24T22:23:56.426Z,10.00
2023-02-24T22:26:58.922Z,10.17
2023-02-24T22:30:01.295Z,9.98
2023-02-24T22:33:03.435Z,9.82
2023-02-24T22:36:06.504Z,10.55
2023-02-24T22:39:09.408Z,9.93
2023-02-24T22:42:11.816Z,9.68
2023-02-24T22:45:14.146Z,11.80
2023-02-24T22:48:16.196Z,10.82
2023-02-24T22:51:18.214Z,10.37
2023-02-24T22:54:20.286Z,10.35
2023-02-24T22:57:22.252Z,9.75
2023-02-24T23:00:26.279Z,9.43
2023-02-24T23:03:30.626Z,9.45
2023-02-24T23:06:32.843Z,9.13
2023-02-24T23:09:35.617Z,9.75
2023-02-24T23:12:37.677Z,13.18
2023-02-24T23:15:39.710Z,12.38
2023-02-24T23:18:41.945Z,13.75
2023-02-24T23:21:45.251Z,13.63
2023-02-24T23:24:47.483Z,12.48
2023-02-24T23:27:49.658Z,12.13
2023-02-24T23:30:51.966Z,10.88
2023-02-24T23:33:54.807Z,12.05
2023-02-24T23:36:56.955Z,12.65
2023-02-24T23:39:58.995Z,11.63
2023-02-24T23:43:01.178Z,11.33
2023-02-24T23:46:04.010Z,10.93
2023-02-24T23:49:06.549Z,11.18
2023-02-24T23:52:10.147Z,10.45
2023-02-24T23:55:12.573Z,10.82
2023-02-24T23:58:15.182Z,11.30
